Time;durP1;ratioP1;P1;durP2;ratioP2;P2;SDS_P1;SDS_P2;PMS_P1;PMS_P2;Temp;Humidity;BMP_temperature;BMP_pressure;BME280_temperature;BME280_humidity;BME280_pressure;Samples;Min_cycle;Max_cycle;Signal;HPM_P1;HPM_P2
2022/11/07 00:01:46;;;;;;;3.15;2.22;;;9.10;99.90;;;;;;8325932;28;20308;-86
2022/11/07 00:06:06;;;;;;;3.05;2.22;;;9.10;99.90;;;;;;8333657;28;20567;-86
2022/11/07 00:10:16;;;;;;;;;;;9.10;99.90;;;;;;8316564;28;20445;-86
2022/11/07 00:14:17;;;;;;;3.05;2.00;;;9.00;99.90;;;;;;8312911;28;19913;-85
2022/11/07 00:18:20;;;;;;;5.25;1.98;;;9.00;99.90;;;;;;8305900;28;20502;-86
2022/11/07 00:22:20;;;;;;;2.78;1.92;;;9.20;99.90;;;;;;8319644;28;20029;-85
2022/11/07 00:26:21;;;;;;;5.15;2.20;;;9.30;99.90;;;;;;8320138;28;20027;-85
2022/11/07 00:30:22;;;;;;;2.63;2.03;;;9.30;99.90;;;;;;8321397;28;20494;-85
2022/11/07 00:34:22;;;;;;;3.88;1.90;;;9.30;99.90;;;;;;8325301;28;20025;-85
2022/11/07 00:38:23;;;;;;;3.67;1.75;;;9.30;99.90;;;;;;8311385;28;20033;-85
2022/11/07 00:42:23;;;;;;;5.88;2.30;;;9.40;99.90;;;;;;8326998;28;20032;-84
2022/11/07 00:46:24;;;;;;;2.55;2.15;;;9.60;99.90;;;;;;8321846;28;20017;-85
2022/11/07 00:50:56;;;;;;;3.22;2.08;;;9.60;99.90;;;;;;8305395;28;20101;-85
2022/11/07 00:54:57;;;;;;;2.47;1.85;;;9.60;99.90;;;;;;8319851;28;20018;-85
2022/11/07 00:58:59;;;;;;;4.93;1.77;;;9.70;99.90;;;;;;8319971;28;20087;-84
2022/11/07 01:07:18;;;;;;;2.55;1.67;;;9.60;99.90;;;;;;8327167;28;20110;-85
2022/11/07 01:11:20;;;;;;;1.90;1.48;;;9.60;99.90;;;;;;8343685;22;20389;-86
2022/11/07 01:15:20;;;;;;;3.53;1.80;;;9.50;99.90;;;;;;8345082;28;20041;-85
2022/11/07 01:19:21;;;;;;;3.28;1.98;;;9.20;99.90;;;;;;8352058;28;20036;-85
2022/11/07 01:23:21;;;;;;;3.28;1.90;;;9.10;99.90;;;;;;8352039;28;20484;-86
2022/11/07 01:27:22;;;;;;;2.38;1.52;;;8.90;99.90;;;;;;8360319;28;20499;-85
2022/11/07 01:31:23;;;;;;;4.00;1.75;;;8.80;99.90;;;;;;8345040;28;20056;-85
2022/11/07 01:35:23;;;;;;;3.92;1.70;;;8.80;99.90;;;;;;8349593;28;20084;-85
2022/11/07 01:39:24;;;;;;;2.40;1.70;;;8.80;99.90;;;;;;8352632;28;20022;-85
2022/11/07 01:43:45;;;;;;;3.58;1.70;;;8.90;99.90;;;;;;8349945;28;20029;-85
2022/11/07 01:47:47;;;;;;;4.07;2.08;;;9.00;99.90;;;;;;8332716;28;20396;-85
2022/11/07 01:52:16;;;;;;;2.53;1.63;;;9.10;99.90;;;;;;8352029;28;20044;-86
2022/11/07 01:56:24;;;;;;;2.35;1.63;;;8.90;99.90;;;;;;8345182;28;20021;-85
2022/11/07 02:00:26;;;;;;;1.70;1.55;;;8.70;99.90;;;;;;8348623;28;20029;-85
2022/11/07 02:05:05;;;;;;;4.18;2.10;;;8.50;99.90;;;;;;8349358;28;20058;-85
2022/11/07 02:09:09;;;;;;;2.70;1.70;;;8.30;99.90;;;;;;8356336;28;20066;-86
2022/11/07 02:13:24;;;;;;;3.35;1.90;;;8.10;99.90;;;;;;8343887;28;20040;-86
2022/11/07 02:17:25;;;;;;;3.63;1.92;;;7.80;99.90;;;;;;8344103;28;20033;-85
2022/11/07 02:21:26;;;;;;;2.38;1.83;;;7.70;99.90;;;;;;8364481;28;20047;-86
2022/11/07 02:25:28;;;;;;;3.28;1.95;;;7.80;99.90;;;;;;8358371;28;20017;-86
2022/11/07 02:29:57;;;;;;;3.15;1.80;;;8.10;99.90;;;;;;8349205;28;20473;-85
2022/11/07 02:34:03;;;;;;;2.28;1.65;;;8.00;99.90;;;;;;8347194;28;20037;-86
2022/11/07 02:38:45;;;;;;;2.00;1.67;;;7.80;99.90;;;;;;8359153;28;20135;-85
2022/11/07 02:43:08;;;;;;;4.43;2.20;;;8.20;99.90;;;;;;8343453;28;20036;-85
2022/11/07 02:47:08;;;;;;;2.53;1.90;;;8.20;99.90;;;;;;8358383;28;20087;-85
2022/11/07 02:51:09;;;;;;;3.72;2.33;;;8.10;99.90;;;;;;8352685;28;20108;-86
2022/11/07 02:55:12;;;;;;;3.50;2.08;;;7.90;99.90;;;;;;8357749;28;20048;-85
2022/11/07 02:59:12;;;;;;;2.50;2.00;;;7.80;99.90;;;;;;8349488;28;20413;-85
2022/11/07 03:03:13;;;;;;;3.10;2.10;;;7.70;99.90;;;;;;8349337;28;20392;-84
2022/11/07 03:07:20;;;;;;;5.03;1.90;;;7.60;99.90;;;;;;8356221;28;20029;-86
2022/11/07 03:11:20;;;;;;;2.85;1.92;;;7.70;99.90;;;;;;8356368;28;20025;-86
2022/11/07 03:15:21;;;;;;;2.78;2.08;;;7.50;99.90;;;;;;8363632;28;20435;-86
2022/11/07 03:19:24;;;;;;;2.95;2.00;;;7.30;99.90;;;;;;8353557;28;20036;-86
2022/11/07 03:23:25;;;;;;;3.35;2.00;;;7.40;99.90;;;;;;8349237;28;20044;-85
2022/11/07 03:27:48;;;;;;;2.97;1.80;;;7.30;99.90;;;;;;8341449;28;20029;-86
2022/11/07 03:31:48;;;;;;;2.38;1.70;;;7.10;99.90;;;;;;8337119;28;20076;-86
2022/11/07 03:35:49;;;;;;;2.60;1.73;;;7.30;99.90;;;;;;8362861;28;20036;-85
2022/11/07 03:39:49;;;;;;;3.42;1.90;;;7.40;99.90;;;;;;8356052;28;20025;-86
2022/11/07 03:43:50;;;;;;;3.15;1.95;;;7.80;99.90;;;;;;8347868;28;20028;-85
2022/11/07 03:47:51;;;;;;;1.95;1.75;;;7.80;99.90;;;;;;8359672;28;20468;-85
2022/11/07 03:52:00;;;;;;;2.47;1.60;;;8.00;99.90;;;;;;8343513;28;20112;-85
2022/11/07 03:56:51;;;;;;;2.63;1.80;;;8.00;99.90;;;;;;8358704;28;20627;-85
2022/11/07 04:01:05;;;;;;;2.47;1.80;;;7.70;99.90;;;;;;8356633;28;20503;-85
2022/11/07 04:05:12;;;;;;;2.47;1.52;;;7.70;99.90;;;;;;8354160;28;20033;-85
2022/11/07 04:09:15;;;;;;;2.90;1.85;;;7.70;99.90;;;;;;8360213;28;20095;-85
2022/11/07 04:17:35;;;;;;;2.22;1.48;;;7.60;99.90;;;;;;8355624;28;20558;-84
2022/11/07 04:21:52;;;;;;;2.15;1.52;;;7.80;99.90;;;;;;8348713;28;20029;-85
2022/11/07 04:30:18;;;;;;;2.55;1.60;;;8.10;99.90;;;;;;8355538;28;20183;-84
2022/11/07 04:34:28;;;;;;;2.33;1.48;;;8.20;99.90;;;;;;8352068;28;20026;-85
2022/11/07 04:38:35;;;;;;;2.65;1.50;;;8.50;99.90;;;;;;8344407;28;20053;-85
2022/11/07 04:42:36;;;;;;;2.47;1.35;;;8.60;99.90;;;;;;8326661;28;20040;-86
2022/11/07 04:46:37;;;;;;;2.15;1.50;;;8.80;99.90;;;;;;8321201;28;20030;-85
2022/11/07 04:50:38;;;;;;;2.40;1.40;;;8.60;99.90;;;;;;8338164;28;20028;-85
2022/11/07 04:54:39;;;;;;;2.72;1.50;;;8.50;99.90;;;;;;8340741;28;20401;-85
2022/11/07 04:58:39;;;;;;;1.83;1.35;;;8.50;99.90;;;;;;8359024;28;20028;-85
2022/11/07 05:02:40;;;;;;;2.15;1.52;;;8.40;99.90;;;;;;8355931;28;20031;-86
2022/11/07 05:06:41;;;;;;;1.85;1.48;;;8.40;99.90;;;;;;8336789;28;20064;-85
2022/11/07 05:10:41;;;;;;;3.08;1.33;;;8.20;99.90;;;;;;8345418;28;20028;-85
2022/11/07 05:14:42;;;;;;;2.95;1.63;;;8.30;99.90;;;;;;8341843;28;20524;-85
2022/11/07 05:18:42;;;;;;;1.73;1.45;;;8.30;99.90;;;;;;8334094;28;20037;-86
2022/11/07 05:27:02;;;;;;;2.13;1.52;;;8.20;99.90;;;;;;8346869;28;20029;-86
2022/11/07 05:31:04;;;;;;;2.83;1.50;;;8.10;99.90;;;;;;8341369;28;20029;-86
2022/11/07 05:35:05;;;;;;;2.47;1.48;;;8.40;99.90;;;;;;8344383;28;20048;-86
2022/11/07 05:39:42;;;;;;;2.17;1.50;;;8.50;99.90;;;;;;8350770;28;20040;-85
2022/11/07 05:43:43;;;;;;;3.90;1.60;;;8.50;99.90;;;;;;8348876;28;20028;-85
2022/11/07 05:47:44;;;;;;;2.15;1.40;;;8.50;99.90;;;;;;8351018;28;20061;-85
2022/11/07 05:51:44;;;;;;;1.38;1.20;;;8.60;99.90;;;;;;8353027;28;20021;-85
2022/11/07 05:55:46;;;;;;;2.08;1.48;;;8.50;99.90;;;;;;8346254;28;20028;-86
2022/11/07 05:59:46;;;;;;;2.10;1.40;;;8.50;99.90;;;;;;8351367;28;20098;-85
2022/11/07 06:03:57;;;;;;;1.88;1.10;;;8.40;99.90;;;;;;8331806;28;20083;-85
2022/11/07 06:07:58;;;;;;;3.10;1.65;;;8.20;99.90;;;;;;8350293;28;20044;-85
2022/11/07 06:11:59;;;;;;;1.90;1.48;;;8.00;99.90;;;;;;8357569;28;20033;-85
2022/11/07 06:15:59;;;;;;;2.28;1.60;;;7.90;99.90;;;;;;8351664;28;20130;-85
2022/11/07 06:20:00;;;;;;;2.03;1.38;;;7.70;99.90;;;;;;8351172;28;20025;-85
2022/11/07 06:24:00;;;;;;;3.92;1.90;;;7.70;99.90;;;;;;8350602;28;20021;-85
2022/11/07 06:28:06;;;;;;;1.63;1.45;;;7.80;99.90;;;;;;8353497;28;20108;-85
2022/11/07 06:32:10;;;;;;;2.15;1.40;;;7.60;99.90;;;;;;8352962;28;20029;-86
2022/11/07 06:36:11;;;;;;;2.17;1.48;;;7.40;99.90;;;;;;8344465;28;20037;-85
2022/11/07 06:40:12;;;;;;;1.80;1.45;;;7.20;99.90;;;;;;8347441;28;20107;-85
2022/11/07 06:44:13;;;;;;;2.30;1.50;;;7.10;99.90;;;;;;8343043;28;20021;-85
2022/11/07 06:48:14;;;;;;;2.30;1.52;;;7.30;99.90;;;;;;8345312;28;20149;-85
2022/11/07 06:52:15;;;;;;;3.53;1.80;;;7.30;99.90;;;;;;8340549;28;20370;-85
2022/11/07 06:56:16;;;;;;;3.75;2.28;;;7.30;99.90;;;;;;8353835;28;20033;-85
2022/11/07 07:00:17;;;;;;;3.65;2.33;;;7.50;99.90;;;;;;8346128;28;20547;-86
2022/11/07 07:04:17;;;;;;;3.95;2.13;;;7.50;99.90;;;;;;8358836;28;20027;-86
2022/11/07 07:08:18;;;;;;;2.95;1.80;;;7.50;99.90;;;;;;8349315;28;20018;-85
2022/11/07 07:12:18;;;;;;;2.30;1.55;;;7.70;99.90;;;;;;8356500;28;20029;-85
2022/11/07 07:16:19;;;;;;;2.30;1.55;;;7.90;99.90;;;;;;8357613;28;20492;-86
2022/11/07 07:20:19;;;;;;;3.75;1.50;;;8.30;99.90;;;;;;8356256;28;20036;-85
2022/11/07 07:24:20;;;;;;;1.95;1.20;;;8.80;99.90;;;;;;8341980;28;20053;-85
2022/11/07 07:28:21;;;;;;;2.00;1.25;;;9.20;99.90;;;;;;8364646;28;20037;-85
2022/11/07 07:32:24;;;;;;;2.15;1.23;;;9.50;99.90;;;;;;8354903;28;20068;-85
2022/11/07 07:36:25;;;;;;;1.92;1.13;;;9.70;99.90;;;;;;8353842;28;20515;-85
2022/11/07 07:40:25;;;;;;;1.70;1.35;;;9.90;99.90;;;;;;8355976;28;20021;-86
2022/11/07 07:44:26;;;;;;;1.23;1.00;;;10.00;99.90;;;;;;8354377;28;20032;-85
2022/11/07 07:48:27;;;;;;;2.08;1.38;;;10.30;99.90;;;;;;8333301;28;20029;-85
2022/11/07 07:52:27;;;;;;;2.28;0.90;;;10.80;99.90;;;;;;8363615;28;20032;-84
2022/11/07 07:56:28;;;;;;;2.67;1.02;;;11.20;99.90;;;;;;8363152;28;20057;-85
2022/11/07 08:00:28;;;;;;;1.08;0.70;;;11.40;99.90;;;;;;8352912;28;20033;-84
2022/11/07 08:04:29;;;;;;;2.45;1.02;;;11.50;99.90;;;;;;8352736;28;20057;-85
2022/11/07 08:08:30;;;;;;;2.20;0.80;;;11.70;99.90;;;;;;8340726;28;20036;-85
2022/11/07 08:12:31;;;;;;;2.85;0.82;;;11.80;99.90;;;;;;8363179;28;20052;-85
2022/11/07 08:16:31;;;;;;;1.33;0.85;;;12.10;99.90;;;;;;8345789;28;20037;-85
2022/11/07 08:20:32;;;;;;;3.03;1.00;;;12.20;99.90;;;;;;8345956;28;20106;-85
2022/11/07 08:24:32;;;;;;;2.10;0.98;;;12.40;99.90;;;;;;8340071;28;20049;-85
2022/11/07 08:28:34;;;;;;;0.95;0.68;;;12.50;99.90;;;;;;8347062;28;20029;-84
2022/11/07 08:32:35;;;;;;;1.83;0.82;;;12.70;99.90;;;;;;8332949;28;20033;-84
2022/11/07 08:36:35;;;;;;;2.35;1.15;;;12.80;99.90;;;;;;8333470;28;20539;-84
2022/11/07 08:40:36;;;;;;;1.60;0.90;;;12.90;99.90;;;;;;8340555;28;20033;-85
2022/11/07 08:44:37;;;;;;;1.00;0.63;;;13.00;99.90;;;;;;8339897;28;20029;-83
2022/11/07 08:48:38;;;;;;;2.00;0.80;;;12.90;99.90;;;;;;8336958;28;20036;-85
2022/11/07 08:52:39;;;;;;;1.63;0.60;;;13.00;99.90;;;;;;8340097;28;20071;-85
2022/11/07 08:56:39;;;;;;;1.67;0.90;;;13.10;99.90;;;;;;8339313;28;20542;-84
2022/11/07 09:00:41;;;;;;;1.55;0.65;;;13.20;99.90;;;;;;8331282;28;20075;-85
2022/11/07 09:04:41;;;;;;;0.93;0.70;;;13.30;99.90;;;;;;8346767;28;20505;-84
2022/11/07 09:08:42;;;;;;;1.15;0.70;;;13.20;99.90;;;;;;8336814;28;20029;-84
2022/11/07 09:12:44;;;;;;;2.95;0.80;;;13.30;99.90;;;;;;8330437;28;20033;-85
2022/11/07 09:16:45;;;;;;;1.75;0.98;;;13.40;99.90;;;;;;8339251;28;20071;-85
2022/11/07 09:20:46;;;;;;;1.10;0.90;;;13.30;99.90;;;;;;8342870;28;20427;-84
2022/11/07 09:24:46;;;;;;;4.10;0.93;;;13.30;99.90;;;;;;8339993;28;20021;-85
2022/11/07 09:28:47;;;;;;;1.08;0.75;;;13.40;99.90;;;;;;8342002;28;20013;-85
2022/11/07 09:32:48;;;;;;;0.90;0.77;;;13.70;99.90;;;;;;8331890;28;20091;-84
2022/11/07 09:36:48;;;;;;;1.52;0.70;;;13.80;99.90;;;;;;8333056;28;20032;-84
2022/11/07 09:40:58;;;;;;;1.38;0.90;;;13.90;99.90;;;;;;8329652;28;20021;-85
2022/11/07 09:44:59;;;;;;;1.63;1.05;;;14.00;99.90;;;;;;8344075;28;20404;-84
2022/11/07 09:49:36;;;;;;;1.10;0.70;;;14.20;99.90;;;;;;8337299;28;20076;-85
2022/11/07 09:53:45;;;;;;;1.42;0.90;;;14.20;99.90;;;;;;8342003;28;20048;-85
2022/11/07 09:57:47;;;;;;;1.60;0.80;;;14.10;99.90;;;;;;8337340;28;20058;-84
2022/11/07 10:01:48;;;;;;;1.17;0.80;;;14.10;99.90;;;;;;8335342;28;20025;-85
2022/11/07 10:06:24;;;;;;;1.08;0.70;;;14.20;99.90;;;;;;8335217;28;20019;-84
2022/11/07 10:10:34;;;;;;;0.95;0.70;;;14.10;99.90;;;;;;8345884;28;20393;-85
2022/11/07 10:14:50;;;;;;;2.17;0.90;;;14.00;99.90;;;;;;8330229;28;20037;-84
2022/11/07 10:19:08;;;;;;;1.48;0.88;;;14.10;99.90;;;;;;8352054;28;20032;-84
2022/11/07 10:23:26;;;;;;;1.67;0.70;;;14.10;99.90;;;;;;8340299;28;20033;-84
2022/11/07 10:27:27;;;;;;;1.85;0.80;;;14.20;99.90;;;;;;8336115;28;20022;-84
2022/11/07 10:31:34;;;;;;;1.17;0.65;;;14.50;99.90;;;;;;8345017;28;20083;-85
2022/11/07 10:35:41;;;;;;;0.80;0.60;;;14.70;99.90;;;;;;8328097;28;20037;-84
2022/11/07 10:39:41;;;;;;;1.33;0.80;;;14.90;99.90;;;;;;8343357;28;20087;-84
2022/11/07 10:43:45;;;;;;;0.77;0.73;;;14.80;99.90;;;;;;8342886;28;20036;-84
2022/11/07 10:47:57;;;;;;;1.17;0.70;;;14.90;99.90;;;;;;8335310;28;20431;-85
2022/11/07 10:52:17;;;;;;;1.27;0.60;;;14.60;99.90;;;;;;8342416;28;20036;-85
2022/11/07 10:56:18;;;;;;;2.30;0.80;;;14.70;99.90;;;;;;8341768;28;20489;-85
2022/11/07 11:00:25;;;;;;;1.05;0.60;;;14.70;99.90;;;;;;8339848;28;20116;-84
2022/11/07 11:04:29;;;;;;;1.65;0.90;;;15.20;99.90;;;;;;8351901;28;20566;-85
2022/11/07 11:08:36;;;;;;;1.05;0.60;;;15.30;99.90;;;;;;8341916;28;20397;-85
2022/11/07 11:12:43;;;;;;;2.15;0.80;;;15.40;99.90;;;;;;8327924;28;20456;-85
2022/11/07 11:16:45;;;;;;;2.42;0.82;;;15.60;99.90;;;;;;8340823;28;20025;-85
2022/11/07 11:21:00;;;;;;;0.93;0.60;;;16.20;99.90;;;;;;8333660;28;20100;-85
2022/11/07 11:25:13;;;;;;;1.20;0.60;;;16.50;99.90;;;;;;8341790;28;20025;-84
2022/11/07 11:29:55;;;;;;;2.70;0.85;;;16.60;99.90;;;;;;8340596;28;20455;-85
2022/11/07 11:34:35;;;;;;;2.20;0.70;;;16.60;99.90;;;;;;8335303;28;20288;-85
2022/11/07 11:38:39;;;;;;;1.23;0.88;;;16.50;99.90;;;;;;8335606;28;20548;-85
2022/11/07 11:42:51;;;;;;;1.92;1.25;;;16.20;99.90;;;;;;8334477;28;20055;-85
2022/11/07 11:47:03;;;;;;;1.83;0.75;;;16.20;99.90;;;;;;8352005;28;20026;-85
2022/11/07 11:51:14;;;;;;;2.30;0.80;;;16.00;99.90;;;;;;8351826;28;20017;-85
2022/11/07 11:55:17;;;;;;;0.85;0.63;;;15.80;99.90;;;;;;8352445;28;20103;-85
2022/11/07 11:59:48;;;;;;;1.60;1.20;;;15.80;99.90;;;;;;8358021;28;20040;-85
2022/11/07 12:04:36;;;;;;;2.28;0.90;;;16.00;99.90;;;;;;8342285;28;20500;-85
2022/11/07 12:08:54;;;;;;;0.88;0.60;;;15.40;99.90;;;;;;8327750;28;20037;-85
2022/11/07 12:13:27;;;;;;;1.38;0.70;;;15.30;99.90;;;;;;8309937;28;20117;-86
2022/11/07 12:17:34;;;;;;;2.22;0.52;;;15.40;99.90;;;;;;8345711;28;20029;-85
2022/11/07 12:21:44;;;;;;;1.30;0.60;;;15.30;99.90;;;;;;8331927;28;20025;-86
2022/11/07 12:25:50;;;;;;;1.77;0.80;;;15.40;99.90;;;;;;8353232;28;20021;-85
2022/11/07 12:29:58;;;;;;;3.35;0.80;;;15.50;99.90;;;;;;8339139;28;20029;-85
2022/11/07 12:34:35;;;;;;;3.28;0.68;;;15.60;99.90;;;;;;8343556;28;20025;-85
2022/11/07 12:38:48;;;;;;;1.27;0.60;;;15.60;99.90;;;;;;8321610;28;20064;-85
2022/11/07 12:43:13;;;;;;;0.95;0.50;;;15.30;99.90;;;;;;8335481;28;20396;-85
2022/11/07 12:47:51;;;;;;;2.60;0.65;;;15.20;99.90;;;;;;8328922;28;20033;-85
2022/11/07 12:52:00;;;;;;;2.97;0.60;;;15.20;99.90;;;;;;8333183;28;20028;-85
2022/11/07 12:56:12;;;;;;;1.38;0.60;;;15.00;99.90;;;;;;8347036;28;20021;-85
2022/11/07 13:00:22;;;;;;;3.33;0.80;;;15.00;99.90;;;;;;8339249;28;20052;-84
2022/11/07 13:04:50;;;;;;;1.30;0.70;;;14.80;99.90;;;;;;8348645;28;20029;-85
2022/11/07 13:09:12;;;;;;;0.93;0.65;;;14.60;99.90;;;;;;8330327;28;20059;-85
2022/11/07 13:13:31;;;;;;;1.85;0.73;;;14.50;99.90;;;;;;8336431;28;20037;-85
2022/11/07 13:17:43;;;;;;;1.85;0.73;;;14.40;99.90;;;;;;8321306;28;20572;-84
2022/11/07 13:21:43;;;;;;;2.55;1.10;;;14.30;99.90;;;;;;8343648;28;20026;-85
2022/11/07 13:25:44;;;;;;;2.05;0.70;;;14.40;99.90;;;;;;8344239;28;20083;-85
2022/11/07 13:29:44;;;;;;;0.80;0.60;;;14.20;99.90;;;;;;8331009;28;20024;-85
2022/11/07 13:33:45;;;;;;;1.65;0.77;;;14.30;99.90;;;;;;8343424;28;20527;-85
2022/11/07 13:37:49;;;;;;;1.70;0.70;;;14.60;99.90;;;;;;8329579;28;20031;-85
2022/11/07 13:41:51;;;;;;;1.50;0.70;;;14.80;99.90;;;;;;8330879;28;20025;-85
2022/11/07 13:46:01;;;;;;;2.95;0.95;;;15.10;99.90;;;;;;8339561;28;20021;-85
2022/11/07 13:50:12;;;;;;;4.07;0.85;;;15.40;99.90;;;;;;8333249;28;20017;-85
2022/11/07 13:54:25;;;;;;;4.05;0.85;;;15.50;99.90;;;;;;8333447;28;20093;-85
2022/11/07 13:58:28;;;;;;;2.08;0.60;;;15.30;99.90;;;;;;8335367;28;20383;-85
2022/11/07 14:02:31;;;;;;;1.00;0.68;;;15.20;99.90;;;;;;8344394;28;20025;-85
2022/11/07 14:06:32;;;;;;;1.13;0.80;;;15.00;99.90;;;;;;8341790;28;20051;-84
2022/11/07 14:10:39;;;;;;;1.13;0.57;;;15.10;99.90;;;;;;8342297;28;20026;-84
2022/11/07 14:14:39;;;;;;;1.42;0.70;;;15.10;99.90;;;;;;8351233;28;20034;-85
2022/11/07 14:18:55;;;;;;;0.93;0.60;;;15.20;99.90;;;;;;8359050;28;20430;-84
2022/11/07 14:22:59;;;;;;;1.15;0.63;;;15.30;99.90;;;;;;8343164;28;20068;-85
2022/11/07 14:27:01;;;;;;;4.32;0.70;;;15.20;99.90;;;;;;8342771;28;20025;-85
2022/11/07 14:31:04;;;;;;;2.65;0.75;;;14.90;99.90;;;;;;8334763;28;20033;-85
2022/11/07 14:35:07;;;;;;;2.85;0.75;;;14.60;99.90;;;;;;8335044;28;20235;-84
2022/11/07 14:39:12;;;;;;;2.25;0.80;;;14.30;99.90;;;;;;8347652;28;20028;-84
2022/11/07 14:43:16;;;;;;;1.35;0.60;;;14.00;99.90;;;;;;8340998;28;20029;-84
2022/11/07 14:47:21;;;;;;;0.82;0.68;;;13.80;99.90;;;;;;8356413;28;20029;-85
2022/11/07 14:51:27;;;;;;;3.28;0.68;;;13.60;99.90;;;;;;8332019;28;20025;-85
2022/11/07 14:55:42;;;;;;;1.90;0.80;;;13.60;99.90;;;;;;8347551;28;20400;-85
2022/11/07 14:59:42;;;;;;;1.15;0.60;;;13.60;99.90;;;;;;8344949;28;20147;-84
2022/11/07 15:03:54;;;;;;;2.55;0.85;;;13.50;99.90;;;;;;8353280;28;20059;-85
2022/11/07 15:07:56;;;;;;;0.88;0.55;;;13.50;99.90;;;;;;8345089;28;20385;-85
2022/11/07 15:11:58;;;;;;;2.05;0.70;;;13.40;99.90;;;;;;8344056;28;20116;-85
2022/11/07 15:16:17;;;;;;;2.63;0.77;;;13.00;99.90;;;;;;8351505;28;20017;-84
2022/11/07 15:20:30;;;;;;;3.03;0.70;;;12.80;99.90;;;;;;8340753;28;20531;-85
2022/11/07 15:24:33;;;;;;;0.95;0.47;;;12.70;99.90;;;;;;8326844;28;20108;-85
2022/11/07 15:28:48;;;;;;;1.25;0.65;;;12.60;99.90;;;;;;8335014;28;20564;-85
2022/11/07 15:32:49;;;;;;;1.95;1.02;;;12.60;99.90;;;;;;8338157;28;20032;-85
2022/11/07 15:36:49;;;;;;;2.25;0.60;;;12.50;99.90;;;;;;8364883;28;20108;-85
2022/11/07 15:40:50;;;;;;;1.95;1.17;;;12.40;99.90;;;;;;8334148;28;20017;-85
2022/11/07 15:44:51;;;;;;;2.28;1.48;;;12.20;99.90;;;;;;8340205;28;20096;-85
2022/11/07 15:48:52;;;;;;;3.08;1.98;;;12.00;99.90;;;;;;8332945;28;20485;-85
2022/11/07 15:52:53;;;;;;;3.10;1.00;;;11.80;99.90;;;;;;8340631;28;20021;-84
2022/11/07 15:57:03;;;;;;;2.28;0.90;;;11.80;99.90;;;;;;8352179;28;20096;-84
2022/11/07 16:01:04;;;;;;;2.55;1.55;;;11.50;99.90;;;;;;8334114;28;20026;-84
2022/11/07 16:05:05;;;;;;;2.20;0.90;;;11.30;99.90;;;;;;8330925;28;20032;-84
2022/11/07 16:09:13;;;;;;;2.08;1.13;;;11.00;99.90;;;;;;8323607;28;20022;-85
2022/11/07 16:13:14;;;;;;;2.30;0.85;;;10.80;99.90;;;;;;8350315;28;20083;-84
2022/11/07 16:17:18;;;;;;;1.45;0.75;;;10.70;99.90;;;;;;8351460;28;20514;-84
2022/11/07 16:21:19;;;;;;;3.17;0.90;;;10.70;99.90;;;;;;8331461;28;20029;-84
2022/11/07 16:25:23;;;;;;;3.00;0.93;;;10.40;99.90;;;;;;8329746;28;20080;-85
2022/11/07 16:29:24;;;;;;;2.70;1.30;;;10.20;99.90;;;;;;8346429;28;20096;-85
2022/11/07 16:33:25;;;;;;;1.63;1.00;;;10.20;99.90;;;;;;8330087;28;20044;-85
2022/11/07 16:37:26;;;;;;;13.00;4.78;;;10.10;99.90;;;;;;8345321;28;20068;-85
2022/11/07 16:41:31;;;;;;;659.13;202.27;;;9.80;99.90;;;;;;8351370;28;20044;-85
2022/11/07 16:45:32;;;;;;;176.32;68.40;;;9.60;99.90;;;;;;8333669;28;20033;-85
2022/11/07 16:49:32;;;;;;;68.80;32.30;;;9.50;99.90;;;;;;8351694;28;20074;-85
2022/11/07 16:53:33;;;;;;;7.30;3.58;;;9.30;99.90;;;;;;8353744;28;20658;-84
2022/11/07 16:57:35;;;;;;;4.75;2.72;;;9.10;99.90;;;;;;8353889;28;20148;-85
2022/11/07 17:01:36;;;;;;;4.00;2.65;;;9.40;99.90;;;;;;8342740;28;20025;-84
2022/11/07 17:05:37;;;;;;;7.18;3.08;;;9.50;99.90;;;;;;8340183;28;20026;-85
2022/11/07 17:09:38;;;;;;;7.68;3.75;;;9.50;99.90;;;;;;8357590;28;20025;-84
2022/11/07 17:13:38;;;;;;;5.15;3.45;;;9.40;99.90;;;;;;8339205;28;20040;-84
2022/11/07 17:17:39;;;;;;;8.25;4.32;;;9.20;99.90;;;;;;8339268;28;20036;-83
2022/11/07 17:21:45;;;;;;;6.50;3.75;;;9.20;99.90;;;;;;8355947;28;20029;-84
2022/11/07 17:25:49;;;;;;;6.72;3.70;;;9.10;99.90;;;;;;8341107;28;20021;-83
2022/11/07 17:29:51;;;;;;;6.63;3.33;;;8.70;99.90;;;;;;8341960;28;20027;-86
2022/11/07 17:33:52;;;;;;;8.18;4.47;;;8.30;99.90;;;;;;8324466;28;20082;-84
2022/11/07 17:37:53;;;;;;;6.80;3.92;;;7.90;99.90;;;;;;8317588;28;20489;-84
2022/11/07 17:41:53;;;;;;;13.15;5.57;;;7.50;99.90;;;;;;8327187;28;20512;-84
2022/11/07 17:45:54;;;;;;;10.70;6.57;;;7.30;99.90;;;;;;8345444;28;20026;-85
2022/11/07 17:49:55;;;;;;;12.80;7.18;;;7.10;99.90;;;;;;8336878;28;20020;-85
2022/11/07 17:53:59;;;;;;;15.15;6.88;;;6.90;99.90;;;;;;8327571;28;20036;-85
2022/11/07 17:58:00;;;;;;;13.32;7.07;;;6.80;99.90;;;;;;8332441;28;20030;-85
2022/11/07 18:02:00;;;;;;;78.90;23.77;;;6.70;99.90;;;;;;8327073;28;20060;-85
2022/11/07 18:06:01;;;;;;;113.07;34.25;;;6.60;99.90;;;;;;8329319;28;20025;-85
2022/11/07 18:10:06;;;;;;;73.10;26.33;;;6.60;99.90;;;;;;8334070;28;20029;-85
2022/11/07 18:14:13;;;;;;;59.65;23.40;;;6.60;99.90;;;;;;8337844;28;20030;-85
2022/11/07 18:18:14;;;;;;;55.28;22.63;;;6.50;99.90;;;;;;8330496;28;20029;-85
2022/11/07 18:22:15;;;;;;;43.47;17.88;;;6.40;99.90;;;;;;8327005;28;20033;-84
2022/11/07 18:26:24;;;;;;;29.92;16.38;;;6.30;99.90;;;;;;8324334;28;20761;-85
2022/11/07 18:30:24;;;;;;;27.17;14.57;;;6.40;99.90;;;;;;8335634;28;20025;-85
2022/11/07 18:34:25;;;;;;;19.55;10.65;;;6.20;99.90;;;;;;8322218;28;20052;-85
2022/11/07 18:38:26;;;;;;;16.73;9.35;;;6.10;99.90;;;;;;8330532;28;20498;-84
2022/11/07 18:42:39;;;;;;;17.48;9.57;;;6.00;99.90;;;;;;8331461;28;20029;-85
2022/11/07 18:46:40;;;;;;;27.83;13.68;;;5.90;99.90;;;;;;8357459;28;20021;-85
2022/11/07 18:50:41;;;;;;;23.50;12.82;;;6.10;99.90;;;;;;8345284;28;20115;-86
2022/11/07 18:54:41;;;;;;;18.27;10.73;;;6.00;99.90;;;;;;8354756;28;20083;-85
2022/11/07 18:58:51;;;;;;;15.48;8.02;;;6.10;99.90;;;;;;8344815;28;20139;-85
2022/11/07 19:02:52;;;;;;;11.30;5.82;;;6.40;99.90;;;;;;8347305;28;20035;-85
2022/11/07 19:06:55;;;;;;;17.00;8.55;;;6.60;99.90;;;;;;8324131;28;20025;-86
2022/11/07 19:10:57;;;;;;;11.48;6.80;;;6.60;99.90;;;;;;8327728;28;20083;-86
2022/11/07 19:14:58;;;;;;;8.98;5.40;;;6.60;99.90;;;;;;8358202;28;20037;-85
2022/11/07 19:18:59;;;;;;;7.78;4.50;;;6.50;99.90;;;;;;8338308;28;20021;-86
2022/11/07 19:22:59;;;;;;;9.10;5.55;;;6.50;99.90;;;;;;8337528;28;20045;-86
2022/11/07 19:27:00;;;;;;;10.85;5.88;;;6.50;99.90;;;;;;8340551;28;20491;-85
2022/11/07 19:31:02;;;;;;;11.15;6.28;;;6.30;99.90;;;;;;8352165;28;20075;-85
2022/11/07 19:35:03;;;;;;;11.10;5.95;;;6.00;99.90;;;;;;8334434;28;20025;-85
2022/11/07 19:39:04;;;;;;;14.10;8.45;;;6.20;99.90;;;;;;8335285;28;20029;-85
2022/11/07 19:43:08;;;;;;;8.88;5.47;;;6.30;99.90;;;;;;8339643;28;20068;-85
2022/11/07 19:47:09;;;;;;;7.72;5.30;;;6.30;99.90;;;;;;8341377;28;20032;-84
2022/11/07 19:51:16;;;;;;;11.15;7.10;;;6.10;99.90;;;;;;8353266;28;20591;-83
2022/11/07 19:55:16;;;;;;;9.60;6.50;;;5.80;99.90;;;;;;8354969;28;20083;-86
2022/11/07 19:59:17;;;;;;;11.57;8.45;;;5.50;99.90;;;;;;8333517;28;20049;-85
2022/11/07 20:03:17;;;;;;;12.95;9.07;;;5.30;99.90;;;;;;8347705;28;20029;-84
2022/11/07 20:07:18;;;;;;;9.05;5.78;;;5.20;99.90;;;;;;8351212;28;20026;-85
2022/11/07 20:11:21;;;;;;;16.80;9.85;;;5.20;99.90;;;;;;8337835;28;20026;-85
2022/11/07 20:15:22;;;;;;;14.90;8.80;;;5.10;99.90;;;;;;8327676;28;20026;-85
2022/11/07 20:19:22;;;;;;;11.73;8.13;;;5.10;99.90;;;;;;8335814;28;20064;-85
2022/11/07 20:23:23;;;;;;;11.85;7.15;;;5.10;99.90;;;;;;8340329;28;20028;-85
2022/11/07 20:27:24;;;;;;;14.65;8.57;;;5.20;99.90;;;;;;8357000;28;20545;-84
2022/11/07 20:31:29;;;;;;;14.70;8.15;;;5.30;99.90;;;;;;8345531;28;20022;-84
2022/11/07 20:35:29;;;;;;;12.82;6.63;;;5.20;99.90;;;;;;8338875;28;20030;-84
2022/11/07 20:39:30;;;;;;;12.52;7.20;;;5.10;99.90;;;;;;8336653;28;20090;-85
2022/11/07 20:43:32;;;;;;;14.40;7.18;;;5.00;99.90;;;;;;8350339;28;20404;-85
2022/11/07 20:47:33;;;;;;;11.65;6.15;;;4.80;99.90;;;;;;8335267;28;20100;-85
2022/11/07 20:51:43;;;;;;;9.82;5.65;;;4.50;99.90;;;;;;8333377;28;20044;-84
2022/11/07 20:55:45;;;;;;;9.13;5.38;;;4.40;99.90;;;;;;8317186;28;20021;-84
2022/11/07 20:59:45;;;;;;;11.20;6.53;;;4.50;99.90;;;;;;8340155;28;20689;-85
2022/11/07 21:03:46;;;;;;;15.93;6.35;;;4.60;99.90;;;;;;8338401;28;20029;-84
2022/11/07 21:07:47;;;;;;;7.00;4.88;;;4.70;99.90;;;;;;8340830;28;20016;-85
2022/11/07 21:11:47;;;;;;;10.10;6.45;;;4.80;99.90;;;;;;8334151;28;20029;-85
2022/11/07 21:15:50;;;;;;;9.00;6.00;;;4.80;99.90;;;;;;8353748;28;20060;-84
2022/11/07 21:19:50;;;;;;;10.93;6.50;;;4.90;99.90;;;;;;8338679;28;20056;-85
2022/11/07 21:24:19;;;;;;;10.55;6.22;;;4.80;99.90;;;;;;8347140;28;20397;-85
2022/11/07 21:28:21;;;;;;;11.95;6.68;;;4.70;99.90;;;;;;8344380;28;20420;-85
2022/11/07 21:32:28;;;;;;;12.00;5.70;;;4.60;99.90;;;;;;8352942;23;20071;-85
2022/11/07 21:36:29;;;;;;;9.10;5.38;;;4.40;99.90;;;;;;8342743;28;20664;-84
2022/11/07 21:40:30;;;;;;;7.20;4.55;;;4.20;99.90;;;;;;8343571;28;20029;-85